createdAt,value
2018-07-16T00:01:32.597Z,4.05
2018-07-16T00:04:02.286Z,4.28
2018-07-16T00:06:30.862Z,4.17
2018-07-16T00:08:59.707Z,4.12
2018-07-16T00:11:29.229Z,4.10
2018-07-16T00:13:59.414Z,4.08
2018-07-16T00:16:28.961Z,4.50
2018-07-16T00:18:57.821Z,4.55
2018-07-16T00:21:27.144Z,4.40
2018-07-16T00:23:55.608Z,5.10
2018-07-16T00:26:24.101Z,4.33
2018-07-16T00:28:52.644Z,4.70
2018-07-16T00:31:22.190Z,4.55
2018-07-16T00:33:50.729Z,4.28
2018-07-16T00:36:19.247Z,4.33
2018-07-16T00:38:48.473Z,4.55
2018-07-16T00:41:18.241Z,4.33
2018-07-16T00:43:46.715Z,4.33
2018-07-16T00:46:16.195Z,4.22
2018-07-16T00:48:45.556Z,4.30
2018-07-16T00:51:14.114Z,4.40
2018-07-16T00:53:42.721Z,4.60
2018-07-16T00:56:11.817Z,4.62
2018-07-16T00:58:40.357Z,4.83
2018-07-16T01:01:09.588Z,4.87
2018-07-16T01:03:38.677Z,4.50
2018-07-16T01:06:07.588Z,4.42
2018-07-16T01:08:36.760Z,4.87
2018-07-16T01:11:05.343Z,4.80
2018-07-16T01:13:35.298Z,4.78
2018-07-16T01:16:04.588Z,4.60
2018-07-16T01:18:33.780Z,5.25
2018-07-16T01:21:02.359Z,4.67
2018-07-16T01:23:30.869Z,4.83
2018-07-16T01:26:00.341Z,5.03
2018-07-16T01:28:28.901Z,5.30
2018-07-16T01:30:57.996Z,4.83
2018-07-16T01:33:27.131Z,4.70
2018-07-16T01:35:55.837Z,4.90
2018-07-16T01:38:24.404Z,5.15
2018-07-16T01:40:52.970Z,4.85
2018-07-16T01:43:21.621Z,4.60
2018-07-16T01:45:50.217Z,4.93
2018-07-16T01:48:21.715Z,4.85
2018-07-16T01:50:50.286Z,4.80
2018-07-16T01:53:19.203Z,5.03
2018-07-16T01:55:48.545Z,4.97
2018-07-16T01:58:17.036Z,5.20
2018-07-16T02:00:58.151Z,5.15
2018-07-16T02:03:28.614Z,4.85
2018-07-16T02:05:58.722Z,5.08
2018-07-16T02:08:27.885Z,5.30
2018-07-16T02:10:57.878Z,6.95
2018-07-16T02:13:27.294Z,5.05
2018-07-16T02:15:56.387Z,5.28
2018-07-16T02:18:25.653Z,5.33
2018-07-16T02:20:55.347Z,5.30
2018-07-16T02:23:23.986Z,5.30
2018-07-16T02:25:53.463Z,5.45
2018-07-16T02:28:24.162Z,5.50
2018-07-16T02:30:52.824Z,5.35
2018-07-16T02:33:22.051Z,5.22
2018-07-16T02:35:50.669Z,5.85
2018-07-16T02:38:19.848Z,5.23
2018-07-16T02:40:50.081Z,5.55
2018-07-16T02:43:18.806Z,5.78
2018-07-16T02:45:48.181Z,5.53
2018-07-16T02:48:16.950Z,5.47
2018-07-16T02:50:46.500Z,5.20
2018-07-16T02:53:15.454Z,5.15
2018-07-16T02:55:44.326Z,5.07
2018-07-16T02:58:13.411Z,5.60
2018-07-16T03:00:42.020Z,5.47
2018-07-16T03:03:12.046Z,5.37
2018-07-16T03:05:40.964Z,5.60
2018-07-16T03:08:09.554Z,5.50
2018-07-16T03:10:38.181Z,6.10
2018-07-16T03:13:07.180Z,5.40
2018-07-16T03:15:36.040Z,5.40
2018-07-16T03:18:04.908Z,5.50
2018-07-16T03:20:33.474Z,5.97
2018-07-16T03:23:02.014Z,5.53
2018-07-16T03:25:30.581Z,5.43
2018-07-16T03:27:59.307Z,5.97
2018-07-16T03:30:28.090Z,5.90
2018-07-16T03:32:56.578Z,6.27
2018-07-16T03:35:26.468Z,5.95
2018-07-16T03:37:54.989Z,6.40
2018-07-16T03:40:24.481Z,6.07
2018-07-16T03:42:53.035Z,5.30
2018-07-16T03:45:21.509Z,6.27
2018-07-16T03:47:51.301Z,6.95
2018-07-16T03:50:19.811Z,7.00
2018-07-16T03:52:48.488Z,6.85
2018-07-16T03:55:17.082Z,6.50
2018-07-16T03:57:46.772Z,6.63
2018-07-16T04:00:15.297Z,6.37
2018-07-16T04:02:44.857Z,6.08
2018-07-16T04:05:13.484Z,6.87
2018-07-16T04:07:42.328Z,6.67
2018-07-16T04:10:10.919Z,6.53
2018-07-16T04:12:39.629Z,6.08
2018-07-16T04:15:08.404Z,6.42
2018-07-16T04:17:37.072Z,7.10
2018-07-16T04:20:05.835Z,6.80
2018-07-16T04:22:34.330Z,6.80
2018-07-16T04:25:02.989Z,6.50
2018-07-16T04:27:32.316Z,6.60
2018-07-16T04:30:01.755Z,6.93
2018-07-16T04:32:30.719Z,6.60
2018-07-16T04:34:59.314Z,7.50
2018-07-16T04:37:28.514Z,8.00
2018-07-16T04:39:57.187Z,7.40
2018-07-16T04:42:26.523Z,7.60
2018-07-16T04:44:55.174Z,7.40
2018-07-16T04:47:23.905Z,7.90
2018-07-16T04:49:52.752Z,8.20
2018-07-16T04:52:22.173Z,7.27
2018-07-16T04:54:51.765Z,8.67
2018-07-16T04:57:20.592Z,7.70
2018-07-16T04:59:49.362Z,7.87
2018-07-16T05:02:17.933Z,7.83
2018-07-16T05:04:46.436Z,10.58
2018-07-16T05:07:15.071Z,8.87
2018-07-16T05:09:44.237Z,7.93
2018-07-16T05:12:12.879Z,9.90
2018-07-16T05:14:42.575Z,8.17
2018-07-16T05:17:11.553Z,10.65
2018-07-16T05:19:42.856Z,9.43
2018-07-16T05:22:11.931Z,7.77
2018-07-16T05:24:41.509Z,8.20
2018-07-16T05:27:10.067Z,9.60
2018-07-16T05:29:38.876Z,7.87
2018-07-16T05:32:11.799Z,9.78
2018-07-16T05:34:40.433Z,7.90
2018-07-16T05:37:09.632Z,7.50
2018-07-16T05:39:38.469Z,7.90
2018-07-16T05:42:07.188Z,12.33
2018-07-16T05:44:36.173Z,7.20
2018-07-16T05:47:08.017Z,8.38
2018-07-16T05:49:37.634Z,7.93
2018-07-16T05:52:06.301Z,8.33
2018-07-16T05:54:36.215Z,7.58
2018-07-16T05:57:04.765Z,7.77
2018-07-16T05:59:34.050Z,7.95
2018-07-16T06:02:02.646Z,8.37
2018-07-16T06:04:32.111Z,8.28
2018-07-16T06:07:01.039Z,8.30
2018-07-16T06:09:30.277Z,7.60
2018-07-16T06:12:00.017Z,7.50
2018-07-16T06:14:29.057Z,7.93
2018-07-16T06:16:57.952Z,8.15
2018-07-16T06:19:27.802Z,7.22
2018-07-16T06:21:57.671Z,7.45
2018-07-16T06:24:26.933Z,7.92
2018-07-16T06:26:55.717Z,7.77
2018-07-16T06:29:25.591Z,7.73
2018-07-16T06:31:54.935Z,8.53
2018-07-16T06:34:23.537Z,7.50
2018-07-16T06:36:53.196Z,7.33
2018-07-16T06:39:21.958Z,6.67
2018-07-16T06:41:50.503Z,6.65
2018-07-16T06:44:19.124Z,6.58
2018-07-16T06:46:47.725Z,6.72
2018-07-16T06:49:16.861Z,6.85
2018-07-16T06:51:45.606Z,6.05
2018-07-16T06:54:15.840Z,8.18
2018-07-16T06:56:45.285Z,6.00
2018-07-16T06:59:14.375Z,6.53
2018-07-16T07:01:44.629Z,6.45
2018-07-16T07:04:13.115Z,6.20
2018-07-16T07:06:42.604Z,6.03
2018-07-16T07:09:11.516Z,6.08
2018-07-16T07:11:40.705Z,6.37
2018-07-16T07:14:09.336Z,6.03
2018-07-16T07:16:40.837Z,6.15
2018-07-16T07:19:10.390Z,5.70
2018-07-16T07:21:39.134Z,5.97
2018-07-16T07:24:07.816Z,5.58
2018-07-16T07:26:36.458Z,5.33
2018-07-16T07:29:05.407Z,5.65
2018-07-16T07:31:34.447Z,5.40
2018-07-16T07:34:03.101Z,4.78
2018-07-16T07:36:31.656Z,5.15
2018-07-16T07:39:00.812Z,5.33
2018-07-16T07:41:30.573Z,4.58
2018-07-16T07:43:59.150Z,4.72
2018-07-16T07:46:27.728Z,5.03
2018-07-16T07:48:57.897Z,4.62
2018-07-16T07:51:28.678Z,4.20
2018-07-16T07:53:58.601Z,4.75
2018-07-16T07:56:27.168Z,4.37
2018-07-16T07:58:55.719Z,4.90
2018-07-16T08:01:24.645Z,4.80
2018-07-16T08:03:53.779Z,4.78
2018-07-16T08:06:22.349Z,5.15
2018-07-16T08:08:51.518Z,4.33
2018-07-16T08:11:20.957Z,5.12
2018-07-16T08:13:51.406Z,5.62
2018-07-16T08:16:20.312Z,4.90
2018-07-16T08:18:50.335Z,4.95
2018-07-16T08:21:19.865Z,4.58
2018-07-16T08:23:49.448Z,4.17
2018-07-16T08:26:18.079Z,4.42
2018-07-16T08:28:46.749Z,4.15
2018-07-16T08:31:15.554Z,3.37
2018-07-16T08:33:44.341Z,3.65
2018-07-16T08:36:13.489Z,5.30
2018-07-16T08:38:42.097Z,4.08
2018-07-16T08:41:11.009Z,3.80
2018-07-16T08:43:39.724Z,3.77
2018-07-16T08:46:08.425Z,4.25
2018-07-16T08:48:37.158Z,3.75
2018-07-16T08:51:05.861Z,5.40
2018-07-16T08:53:34.591Z,3.67
2018-07-16T08:56:03.554Z,3.42
2018-07-16T08:58:32.192Z,4.37
2018-07-16T09:01:02.163Z,4.55
2018-07-16T09:03:31.571Z,3.50
2018-07-16T09:06:05.575Z,4.08
2018-07-16T09:08:35.256Z,3.62
2018-07-16T09:11:04.012Z,3.70
2018-07-16T09:13:32.889Z,3.55
2018-07-16T09:16:02.445Z,4.03
2018-07-16T09:18:31.699Z,4.97
2018-07-16T09:21:01.428Z,3.75
2018-07-16T09:23:31.137Z,4.55
2018-07-16T09:26:00.063Z,3.50
2018-07-16T09:28:29.522Z,2.98
2018-07-16T09:30:59.254Z,3.27
2018-07-16T09:33:30.280Z,3.20
2018-07-16T09:35:59.052Z,4.42
2018-07-16T09:38:28.495Z,6.03
2018-07-16T09:40:57.493Z,3.15
2018-07-16T09:43:26.921Z,2.98
2018-07-16T09:45:56.686Z,3.02
2018-07-16T09:48:25.969Z,3.08
2018-07-16T09:50:55.240Z,2.90
2018-07-16T09:53:23.927Z,3.10
2018-07-16T09:55:55.171Z,2.90
2018-07-16T09:58:25.417Z,3.45
2018-07-16T10:00:59.326Z,3.22
2018-07-16T10:03:28.097Z,3.30
2018-07-16T10:05:56.843Z,2.90
2018-07-16T10:08:27.158Z,3.72
2018-07-16T10:10:56.499Z,2.70
2018-07-16T10:13:26.140Z,3.15
2018-07-16T10:15:54.791Z,2.85
2018-07-16T10:18:24.604Z,2.90
2018-07-16T10:20:53.254Z,3.37
2018-07-16T10:23:21.846Z,3.00
2018-07-16T10:25:50.890Z,2.92
2018-07-16T10:28:19.509Z,3.33
2018-07-16T10:30:49.818Z,2.95
2018-07-16T10:33:19.670Z,3.08
2018-07-16T10:35:48.564Z,2.70
2018-07-16T10:38:17.165Z,3.10
2018-07-16T10:40:45.851Z,3.17
2018-07-16T10:43:14.961Z,2.98
2018-07-16T10:45:43.497Z,2.55
2018-07-16T10:48:13.226Z,3.22
2018-07-16T10:50:42.077Z,2.75
2018-07-16T10:53:11.060Z,2.80
2018-07-16T10:55:40.056Z,3.25
2018-07-16T10:58:08.819Z,3.20
2018-07-16T11:00:37.445Z,3.12
2018-07-16T11:03:06.395Z,2.77
2018-07-16T11:05:35.091Z,2.85
2018-07-16T11:08:03.870Z,3.35
2018-07-16T11:10:32.596Z,2.90
2018-07-16T11:13:01.202Z,3.10
2018-07-16T11:15:30.631Z,3.67
2018-07-16T11:18:00.485Z,3.33
2018-07-16T11:20:30.020Z,3.40
2018-07-16T11:22:58.586Z,2.90
2018-07-16T11:25:28.056Z,2.70
2018-07-16T11:27:57.321Z,2.75
2018-07-16T11:30:26.809Z,2.85
2018-07-16T11:32:56.779Z,2.60
2018-07-16T11:35:26.485Z,2.85
2018-07-16T11:37:55.342Z,2.83
2018-07-16T11:40:23.945Z,3.00
2018-07-16T11:42:53.731Z,2.92
2018-07-16T11:45:23.093Z,5.37
2018-07-16T11:47:52.475Z,4.58
2018-07-16T11:50:21.782Z,3.05
2018-07-16T11:52:50.840Z,3.00
2018-07-16T11:55:20.435Z,3.17
2018-07-16T11:57:49.017Z,2.87
2018-07-16T12:00:18.340Z,3.87
2018-07-16T12:02:48.219Z,2.87
2018-07-16T12:05:17.873Z,2.90
2018-07-16T12:07:47.192Z,3.50
2018-07-16T12:10:16.582Z,3.12
2018-07-16T12:12:45.454Z,2.50
2018-07-16T12:15:14.221Z,2.80
2018-07-16T12:17:42.846Z,2.70
2018-07-16T12:20:11.646Z,2.95
2018-07-16T12:22:40.290Z,2.77
2018-07-16T12:25:08.806Z,2.50
2018-07-16T12:27:37.867Z,3.02
2018-07-16T12:30:06.579Z,2.67
2018-07-16T12:32:36.045Z,3.45
2018-07-16T12:35:06.541Z,2.62
2018-07-16T12:37:35.171Z,2.70
2018-07-16T12:40:04.253Z,2.52
2018-07-16T12:42:33.546Z,2.70
2018-07-16T12:45:02.637Z,2.60
2018-07-16T12:47:32.263Z,2.58
2018-07-16T12:50:01.035Z,2.72
2018-07-16T12:52:30.872Z,2.40
2018-07-16T12:55:00.468Z,2.22
2018-07-16T12:57:30.260Z,2.25
2018-07-16T12:59:59.319Z,2.62
2018-07-16T13:02:28.885Z,2.47
2018-07-16T13:04:57.461Z,3.52
2018-07-16T13:07:26.947Z,2.75
2018-07-16T13:09:56.214Z,2.45
2018-07-16T13:12:25.445Z,2.40
2018-07-16T13:14:55.143Z,2.67
2018-07-16T13:17:24.934Z,2.50
2018-07-16T13:19:54.745Z,2.58
2018-07-16T13:22:23.743Z,2.62
2018-07-16T13:24:52.918Z,2.70
2018-07-16T13:27:22.956Z,2.52
2018-07-16T13:29:52.045Z,2.30
2018-07-16T13:32:21.927Z,2.35
2018-07-16T13:34:51.551Z,2.42
2018-07-16T13:37:20.208Z,2.40
2018-07-16T13:39:49.031Z,2.35
2018-07-16T13:42:18.426Z,2.30
2018-07-16T13:44:47.312Z,2.30
2018-07-16T13:47:16.112Z,2.12
2018-07-16T13:49:45.610Z,2.77
2018-07-16T13:52:15.188Z,2.45
2018-07-16T13:54:45.940Z,2.35
2018-07-16T13:57:14.920Z,3.20
2018-07-16T13:59:43.512Z,2.20
2018-07-16T14:02:12.541Z,2.30
2018-07-16T14:04:41.195Z,2.42
2018-07-16T14:07:10.388Z,2.35
2018-07-16T14:09:38.922Z,2.33
2018-07-16T14:12:09.422Z,2.47
2018-07-16T14:14:39.079Z,2.30
2018-07-16T14:17:07.610Z,2.42
2018-07-16T14:19:36.069Z,2.58
2018-07-16T14:22:05.510Z,2.62
2018-07-16T14:24:34.603Z,2.58
2018-07-16T14:27:03.502Z,2.80
2018-07-16T14:29:32.102Z,2.87
2018-07-16T14:32:03.928Z,2.47
2018-07-16T14:34:32.744Z,2.83
2018-07-16T14:37:04.168Z,2.62
2018-07-16T14:39:33.034Z,2.45
2018-07-16T14:42:01.659Z,2.37
2018-07-16T14:44:30.291Z,2.40
2018-07-16T14:46:58.879Z,2.40
2018-07-16T14:49:27.466Z,2.60
2018-07-16T14:51:56.323Z,2.85
2018-07-16T14:54:24.983Z,2.87
2018-07-16T14:56:53.663Z,2.80
2018-07-16T14:59:22.726Z,2.35
2018-07-16T15:01:51.848Z,2.70
2018-07-16T15:04:20.377Z,3.05
2018-07-16T15:06:49.095Z,2.98
2018-07-16T15:09:17.538Z,2.70
2018-07-16T15:11:46.497Z,2.75
2018-07-16T15:14:16.059Z,4.95
2018-07-16T15:16:45.560Z,4.87
2018-07-16T15:19:14.848Z,2.70
2018-07-16T15:21:43.521Z,2.60
2018-07-16T15:24:12.305Z,2.85
2018-07-16T15:26:41.673Z,2.70
2018-07-16T15:29:11.409Z,2.80
2018-07-16T15:31:40.289Z,3.12
2018-07-16T15:34:09.011Z,2.58
2018-07-16T15:36:38.358Z,2.87
2018-07-16T15:39:07.759Z,2.80
2018-07-16T15:41:37.820Z,2.72
2018-07-16T15:44:06.382Z,2.60
2018-07-16T15:46:34.947Z,2.87
2018-07-16T15:49:03.503Z,2.70
2018-07-16T15:51:32.891Z,3.05
2018-07-16T15:54:01.526Z,2.90
2018-07-16T15:56:30.525Z,3.45
2018-07-16T15:59:00.183Z,3.10
2018-07-16T16:01:28.885Z,2.92
2018-07-16T16:03:57.648Z,2.70
2018-07-16T16:06:27.654Z,2.55
2018-07-16T16:08:56.538Z,2.65
2018-07-16T16:11:25.487Z,3.05
2018-07-16T16:13:54.997Z,2.50
2018-07-16T16:16:24.012Z,2.27
2018-07-16T16:18:52.499Z,2.65
2018-07-16T16:21:21.146Z,2.60
2018-07-16T16:23:50.620Z,2.17
2018-07-16T16:26:19.272Z,2.52
2018-07-16T16:28:47.952Z,2.70
2018-07-16T16:31:16.916Z,2.60
2018-07-16T16:33:45.644Z,2.60
2018-07-16T16:36:15.066Z,2.50
2018-07-16T16:38:43.603Z,2.60
2018-07-16T16:41:12.298Z,2.30
2018-07-16T16:43:40.916Z,2.50
2018-07-16T16:46:09.488Z,2.85
2018-07-16T16:48:37.997Z,2.52
2018-07-16T16:51:06.861Z,2.67
2018-07-16T16:53:35.529Z,2.42
2018-07-16T16:56:04.423Z,2.72
2018-07-16T16:58:33.873Z,3.05
2018-07-16T17:01:03.348Z,2.33
2018-07-16T17:03:32.953Z,2.47
2018-07-16T17:06:01.514Z,2.50
2018-07-16T17:08:30.193Z,2.42
2018-07-16T17:10:59.302Z,2.52
2018-07-16T17:13:27.796Z,2.50
2018-07-16T17:15:57.625Z,2.60
2018-07-16T17:18:26.468Z,2.37
2018-07-16T17:20:55.041Z,2.42
2018-07-16T17:23:23.651Z,2.60
2018-07-16T17:25:52.466Z,2.67
2018-07-16T17:28:21.136Z,2.52
2018-07-16T17:30:50.730Z,2.20
2018-07-16T17:33:19.447Z,2.90
2018-07-16T17:35:50.249Z,2.45
2018-07-16T17:38:19.672Z,2.58
2018-07-16T17:40:49.425Z,2.80
2018-07-16T17:43:18.161Z,2.50
2018-07-16T17:45:46.780Z,2.45
2018-07-16T17:48:15.442Z,2.70
2018-07-16T17:50:44.387Z,2.42
2018-07-16T17:53:12.899Z,2.50
2018-07-16T17:55:41.545Z,2.70
2018-07-16T17:58:10.790Z,2.62
2018-07-16T18:00:39.343Z,2.85
2018-07-16T18:03:10.232Z,2.37
2018-07-16T18:05:39.007Z,2.80
2018-07-16T18:08:07.960Z,3.10
2018-07-16T18:10:37.365Z,3.58
2018-07-16T18:13:06.100Z,2.90
2018-07-16T18:15:34.707Z,3.87
2018-07-16T18:18:04.573Z,2.75
2018-07-16T18:20:33.300Z,2.87
2018-07-16T18:23:01.865Z,2.87
2018-07-16T18:25:31.697Z,2.80
2018-07-16T18:28:00.463Z,2.85
2018-07-16T18:30:29.055Z,3.25
2018-07-16T18:32:57.755Z,2.40
2018-07-16T18:35:27.234Z,2.85
2018-07-16T18:37:55.865Z,4.42
2018-07-16T18:40:24.899Z,3.98
2018-07-16T18:42:54.188Z,4.47
2018-07-16T18:45:22.847Z,4.05
2018-07-16T18:47:52.007Z,3.47
2018-07-16T18:50:20.824Z,3.37
2018-07-16T18:52:49.507Z,3.58
2018-07-16T18:55:18.161Z,3.45
2018-07-16T18:57:47.469Z,3.10
2018-07-16T19:00:16.746Z,3.75
2018-07-16T19:02:45.489Z,2.90
2018-07-16T19:05:13.996Z,3.37
2018-07-16T19:07:43.244Z,4.50
2018-07-16T19:10:12.626Z,3.08
2018-07-16T19:12:41.737Z,2.92
2018-07-16T19:15:16.378Z,3.22
2018-07-16T19:17:47.087Z,3.92
2018-07-16T19:20:16.857Z,3.60
2018-07-16T19:22:47.145Z,4.85
2018-07-16T19:25:16.264Z,3.75
2018-07-16T19:27:45.182Z,3.62
2018-07-16T19:30:15.078Z,3.90
2018-07-16T19:32:45.909Z,3.10
2018-07-16T19:35:15.127Z,3.47
2018-07-16T19:37:43.731Z,3.10
2018-07-16T19:40:13.721Z,3.60
2018-07-16T19:42:42.569Z,3.40
2018-07-16T19:45:11.362Z,3.58
2018-07-16T19:47:40.098Z,3.33
2018-07-16T19:50:08.828Z,3.77
2018-07-16T19:52:38.602Z,4.03
2018-07-16T19:55:07.313Z,3.85
2018-07-16T19:57:36.938Z,4.05
2018-07-16T20:00:06.668Z,3.80
2018-07-16T20:02:36.080Z,4.20
2018-07-16T20:05:04.927Z,4.85
2018-07-16T20:07:34.049Z,4.25
2018-07-16T20:10:02.990Z,4.30
2018-07-16T20:12:33.283Z,4.55
2018-07-16T20:15:02.809Z,5.05
2018-07-16T20:17:32.024Z,4.58
2018-07-16T20:20:00.890Z,5.45
2018-07-16T20:22:29.923Z,4.70
2018-07-16T20:24:58.955Z,5.33
2018-07-16T20:27:27.805Z,4.62
2018-07-16T20:29:56.390Z,4.83
2018-07-16T20:32:25.599Z,5.33
2018-07-16T20:34:54.597Z,5.22
2018-07-16T20:37:23.320Z,5.30
2018-07-16T20:39:51.976Z,5.35
2018-07-16T20:42:20.886Z,5.05
2018-07-16T20:44:50.097Z,5.40
2018-07-16T20:47:19.424Z,5.67
2018-07-16T20:49:49.261Z,6.28
2018-07-16T20:52:21.327Z,5.80
2018-07-16T20:54:51.287Z,5.75
2018-07-16T20:57:19.957Z,5.70
2018-07-16T20:59:49.996Z,6.00
2018-07-16T21:02:19.068Z,6.22
2018-07-16T21:04:47.740Z,6.70
2018-07-16T21:07:17.823Z,6.72
2018-07-16T21:09:46.401Z,7.58
2018-07-16T21:12:15.209Z,6.05
2018-07-16T21:14:44.218Z,6.50
2018-07-16T21:17:12.829Z,5.97
2018-07-16T21:19:42.207Z,6.30
2018-07-16T21:22:10.839Z,5.55
2018-07-16T21:24:40.444Z,5.67
2018-07-16T21:27:09.008Z,6.40
2018-07-16T21:29:39.676Z,5.80
2018-07-16T21:32:08.228Z,6.10
2018-07-16T21:34:36.979Z,4.95
2018-07-16T21:37:05.624Z,5.72
2018-07-16T21:39:34.814Z,6.33
2018-07-16T21:42:03.680Z,6.30
2018-07-16T21:44:32.202Z,6.03
2018-07-16T21:47:00.725Z,6.22
2018-07-16T21:49:29.549Z,6.25
2018-07-16T21:51:58.235Z,6.37
2018-07-16T21:54:27.765Z,5.70
2018-07-16T21:56:56.325Z,5.40
2018-07-16T21:59:25.275Z,5.37
2018-07-16T22:01:53.920Z,5.65
2018-07-16T22:04:22.611Z,5.30
2018-07-16T22:06:51.322Z,5.22
2018-07-16T22:09:20.135Z,4.83
2018-07-16T22:11:49.902Z,5.28
2018-07-16T22:14:19.030Z,4.50
2018-07-16T22:16:47.916Z,4.72
2018-07-16T22:19:16.472Z,4.20
2018-07-16T22:21:45.416Z,4.75
2018-07-16T22:24:14.037Z,4.75
2018-07-16T22:26:42.527Z,4.42
2018-07-16T22:29:11.038Z,4.47
2018-07-16T22:31:39.538Z,4.50
2018-07-16T22:34:08.708Z,4.62
2018-07-16T22:36:37.295Z,5.10
2018-07-16T22:39:08.125Z,4.53
2018-07-16T22:41:37.209Z,4.35
2018-07-16T22:44:05.828Z,4.45
2018-07-16T22:46:34.464Z,4.47
2018-07-16T22:49:03.961Z,4.47
2018-07-16T22:51:32.972Z,4.33
2018-07-16T22:54:01.495Z,4.87
2018-07-16T22:56:31.682Z,5.10
2018-07-16T22:59:00.692Z,4.70
2018-07-16T23:01:29.335Z,4.65
2018-07-16T23:03:57.966Z,4.58
2018-07-16T23:06:26.497Z,5.08
2018-07-16T23:08:55.099Z,4.45
2018-07-16T23:11:23.654Z,4.72
2018-07-16T23:13:52.429Z,4.33
2018-07-16T23:16:21.005Z,4.95
2018-07-16T23:18:50.404Z,4.85
2018-07-16T23:21:19.039Z,4.47
2018-07-16T23:23:47.554Z,4.05
2018-07-16T23:26:16.190Z,4.55
2018-07-16T23:28:45.063Z,4.17
2018-07-16T23:31:13.621Z,4.53
2018-07-16T23:33:42.204Z,4.60
2018-07-16T23:36:10.803Z,4.30
2018-07-16T23:38:39.317Z,5.30
2018-07-16T23:41:08.452Z,4.62
2018-07-16T23:43:36.902Z,5.03
2018-07-16T23:46:05.549Z,4.65
2018-07-16T23:48:34.125Z,4.30
2018-07-16T23:51:02.913Z,4.58
2018-07-16T23:53:31.568Z,4.60
2018-07-16T23:56:00.155Z,5.03
2018-07-16T23:58:28.693Z,4.70
